sensor_id;sensor_type;location;lat;lon;timestamp;pressure;altitude;pressure_sealevel;temperature
20092;BMP180;10205;49.678;6.560;2023-03-23T00:02:02;99083.00;;;18.20
20092;BMP180;10205;49.678;6.560;2023-03-23T00:04:32;99077.00;;;18.20
20092;BMP180;10205;49.678;6.560;2023-03-23T00:07:01;99080.00;;;18.20
20092;BMP180;10205;49.678;6.560;2023-03-23T00:09:29;99083.00;;;18.20
20092;BMP180;10205;49.678;6.560;2023-03-23T00:12:00;99082.00;;;18.20
20092;BMP180;10205;49.678;6.560;2023-03-23T00:14:32;99085.00;;;18.20
20092;BMP180;10205;49.678;6.560;2023-03-23T00:17:08;99080.00;;;18.10
20092;BMP180;10205;49.678;6.560;2023-03-23T00:19:37;99081.00;;;18.10
20092;BMP180;10205;49.678;6.560;2023-03-23T00:22:17;99083.00;;;18.10
20092;BMP180;10205;49.678;6.560;2023-03-23T00:24:47;99084.00;;;18.10
20092;BMP180;10205;49.678;6.560;2023-03-23T00:27:16;99070.00;;;18.00
20092;BMP180;10205;49.678;6.560;2023-03-23T00:29:44;99075.00;;;18.00
20092;BMP180;10205;49.678;6.560;2023-03-23T00:32:12;99068.00;;;18.00
20092;BMP180;10205;49.678;6.560;2023-03-23T00:34:40;99059.00;;;18.00
20092;BMP180;10205;49.678;6.560;2023-03-23T00:37:09;99057.00;;;17.90
20092;BMP180;10205;49.678;6.560;2023-03-23T00:39:38;99065.00;;;17.90
20092;BMP180;10205;49.678;6.560;2023-03-23T00:42:13;99063.00;;;17.90
20092;BMP180;10205;49.678;6.560;2023-03-23T00:44:41;99060.00;;;17.90
20092;BMP180;10205;49.678;6.560;2023-03-23T00:47:10;99058.00;;;17.90
20092;BMP180;10205;49.678;6.560;2023-03-23T00:49:38;99055.00;;;17.80
20092;BMP180;10205;49.678;6.560;2023-03-23T00:52:07;99051.00;;;17.80
20092;BMP180;10205;49.678;6.560;2023-03-23T00:54:34;99049.00;;;17.80
20092;BMP180;10205;49.678;6.560;2023-03-23T00:57:05;99059.00;;;17.80
20092;BMP180;10205;49.678;6.560;2023-03-23T00:59:32;99041.00;;;17.80
20092;BMP180;10205;49.678;6.560;2023-03-23T01:01:59;99052.00;;;17.80
20092;BMP180;10205;49.678;6.560;2023-03-23T01:04:27;99043.00;;;17.70
20092;BMP180;10205;49.678;6.560;2023-03-23T01:06:57;99051.00;;;17.70
20092;BMP180;10205;49.678;6.560;2023-03-23T01:09:26;99035.00;;;17.70
20092;BMP180;10205;49.678;6.560;2023-03-23T01:11:53;99027.00;;;17.70
20092;BMP180;10205;49.678;6.560;2023-03-23T01:14:23;99028.00;;;17.60
20092;BMP180;10205;49.678;6.560;2023-03-23T01:16:51;99025.00;;;17.60
20092;BMP180;10205;49.678;6.560;2023-03-23T01:19:18;99029.00;;;17.60
20092;BMP180;10205;49.678;6.560;2023-03-23T01:21:45;99031.00;;;17.60
20092;BMP180;10205;49.678;6.560;2023-03-23T01:24:13;99032.00;;;17.60
20092;BMP180;10205;49.678;6.560;2023-03-23T01:26:40;99037.00;;;17.60
20092;BMP180;10205;49.678;6.560;2023-03-23T01:29:07;99035.00;;;17.50
20092;BMP180;10205;49.678;6.560;2023-03-23T01:31:36;99036.00;;;17.50
20092;BMP180;10205;49.678;6.560;2023-03-23T01:34:03;99032.00;;;17.50
20092;BMP180;10205;49.678;6.560;2023-03-23T01:36:30;99029.00;;;17.50
20092;BMP180;10205;49.678;6.560;2023-03-23T01:38:59;99020.00;;;17.50
20092;BMP180;10205;49.678;6.560;2023-03-23T01:41:28;99016.00;;;17.40
20092;BMP180;10205;49.678;6.560;2023-03-23T01:43:58;99024.00;;;17.40
20092;BMP180;10205;49.678;6.560;2023-03-23T01:46:27;99023.00;;;17.40
20092;BMP180;10205;49.678;6.560;2023-03-23T01:49:03;99029.00;;;17.40
20092;BMP180;10205;49.678;6.560;2023-03-23T01:51:37;99017.00;;;17.30
20092;BMP180;10205;49.678;6.560;2023-03-23T01:54:11;99012.00;;;17.30
20092;BMP180;10205;49.678;6.560;2023-03-23T01:56:43;99017.00;;;17.30
20092;BMP180;10205;49.678;6.560;2023-03-23T01:59:12;99019.00;;;17.20
20092;BMP180;10205;49.678;6.560;2023-03-23T02:01:44;99014.00;;;17.20
20092;BMP180;10205;49.678;6.560;2023-03-23T02:04:16;99011.00;;;17.20
20092;BMP180;10205;49.678;6.560;2023-03-23T02:06:43;99020.00;;;17.20
20092;BMP180;10205;49.678;6.560;2023-03-23T02:09:12;99019.00;;;17.10
20092;BMP180;10205;49.678;6.560;2023-03-23T02:11:43;99010.00;;;17.10
20092;BMP180;10205;49.678;6.560;2023-03-23T02:14:10;99010.00;;;17.10
20092;BMP180;10205;49.678;6.560;2023-03-23T02:16:45;99011.00;;;17.00
20092;BMP180;10205;49.678;6.560;2023-03-23T02:19:41;98991.00;;;17.00
20092;BMP180;10205;49.678;6.560;2023-03-23T02:22:45;99002.00;;;16.90
20092;BMP180;10205;49.678;6.560;2023-03-23T02:25:51;99014.00;;;16.90
20092;BMP180;10205;49.678;6.560;2023-03-23T02:28:48;99012.00;;;16.80
20092;BMP180;10205;49.678;6.560;2023-03-23T02:31:47;99026.00;;;16.80
20092;BMP180;10205;49.678;6.560;2023-03-23T02:34:27;99022.00;;;16.80
20092;BMP180;10205;49.678;6.560;2023-03-23T02:37:00;99032.00;;;16.80
20092;BMP180;10205;49.678;6.560;2023-03-23T02:39:33;99030.00;;;16.70
20092;BMP180;10205;49.678;6.560;2023-03-23T02:42:06;99028.00;;;16.70
20092;BMP180;10205;49.678;6.560;2023-03-23T02:44:38;99021.00;;;16.70
20092;BMP180;10205;49.678;6.560;2023-03-23T02:47:13;99015.00;;;16.70
20092;BMP180;10205;49.678;6.560;2023-03-23T02:49:47;99011.00;;;16.60
20092;BMP180;10205;49.678;6.560;2023-03-23T02:52:21;99011.00;;;16.60
20092;BMP180;10205;49.678;6.560;2023-03-23T02:54:51;99004.00;;;16.60
20092;BMP180;10205;49.678;6.560;2023-03-23T02:57:20;99014.00;;;16.60
20092;BMP180;10205;49.678;6.560;2023-03-23T02:59:48;99023.00;;;16.60
20092;BMP180;10205;49.678;6.560;2023-03-23T03:02:17;99020.00;;;16.60
20092;BMP180;10205;49.678;6.560;2023-03-23T03:04:57;99020.00;;;16.50
20092;BMP180;10205;49.678;6.560;2023-03-23T03:07:44;99024.00;;;16.50
20092;BMP180;10205;49.678;6.560;2023-03-23T03:10:23;99026.00;;;16.50
20092;BMP180;10205;49.678;6.560;2023-03-23T03:12:59;99007.00;;;16.50
20092;BMP180;10205;49.678;6.560;2023-03-23T03:15:35;99008.00;;;16.50
20092;BMP180;10205;49.678;6.560;2023-03-23T03:18:12;99007.00;;;16.50
20092;BMP180;10205;49.678;6.560;2023-03-23T03:20:47;99005.00;;;16.50
20092;BMP180;10205;49.678;6.560;2023-03-23T03:23:17;98996.00;;;16.40
20092;BMP180;10205;49.678;6.560;2023-03-23T03:25:47;99001.00;;;16.50
20092;BMP180;10205;49.678;6.560;2023-03-23T03:28:17;98995.00;;;16.40
20092;BMP180;10205;49.678;6.560;2023-03-23T03:30:49;98991.00;;;16.40
20092;BMP180;10205;49.678;6.560;2023-03-23T03:33:20;99031.00;;;16.40
20092;BMP180;10205;49.678;6.560;2023-03-23T03:35:54;99012.00;;;16.40
20092;BMP180;10205;49.678;6.560;2023-03-23T03:38:22;99001.00;;;16.40
20092;BMP180;10205;49.678;6.560;2023-03-23T03:40:50;99004.00;;;16.40
20092;BMP180;10205;49.678;6.560;2023-03-23T03:43:17;99009.00;;;16.40
20092;BMP180;10205;49.678;6.560;2023-03-23T03:45:44;99009.00;;;16.40
20092;BMP180;10205;49.678;6.560;2023-03-23T03:48:12;99015.00;;;16.40
20092;BMP180;10205;49.678;6.560;2023-03-23T03:50:39;99015.00;;;16.30
20092;BMP180;10205;49.678;6.560;2023-03-23T03:53:07;99018.00;;;16.40
20092;BMP180;10205;49.678;6.560;2023-03-23T03:55:35;99017.00;;;16.30
20092;BMP180;10205;49.678;6.560;2023-03-23T03:58:05;99012.00;;;16.30
20092;BMP180;10205;49.678;6.560;2023-03-23T04:00:33;99004.00;;;16.30
20092;BMP180;10205;49.678;6.560;2023-03-23T04:03:00;99008.00;;;16.30
20092;BMP180;10205;49.678;6.560;2023-03-23T04:05:27;99010.00;;;16.30
20092;BMP180;10205;49.678;6.560;2023-03-23T04:07:55;99010.00;;;16.30
20092;BMP180;10205;49.678;6.560;2023-03-23T04:10:29;98998.00;;;16.30
20092;BMP180;10205;49.678;6.560;2023-03-23T04:12:57;99002.00;;;16.30
20092;BMP180;10205;49.678;6.560;2023-03-23T04:15:25;99007.00;;;16.30
20092;BMP180;10205;49.678;6.560;2023-03-23T04:17:52;99022.00;;;16.30
20092;BMP180;10205;49.678;6.560;2023-03-23T04:20:22;99005.00;;;16.30
20092;BMP180;10205;49.678;6.560;2023-03-23T04:22:51;99016.00;;;16.30
20092;BMP180;10205;49.678;6.560;2023-03-23T04:25:21;99007.00;;;16.30
20092;BMP180;10205;49.678;6.560;2023-03-23T04:27:51;99005.00;;;16.20
20092;BMP180;10205;49.678;6.560;2023-03-23T04:30:21;98992.00;;;16.20
20092;BMP180;10205;49.678;6.560;2023-03-23T04:32:50;98991.00;;;16.20
20092;BMP180;10205;49.678;6.560;2023-03-23T04:35:23;99018.00;;;16.20
20092;BMP180;10205;49.678;6.560;2023-03-23T04:37:52;99010.00;;;16.20
20092;BMP180;10205;49.678;6.560;2023-03-23T04:40:20;99017.00;;;16.20
20092;BMP180;10205;49.678;6.560;2023-03-23T04:42:49;99011.00;;;16.10
20092;BMP180;10205;49.678;6.560;2023-03-23T04:45:20;99017.00;;;16.10
20092;BMP180;10205;49.678;6.560;2023-03-23T04:47:49;99027.00;;;16.10
20092;BMP180;10205;49.678;6.560;2023-03-23T04:50:21;99025.00;;;16.10
20092;BMP180;10205;49.678;6.560;2023-03-23T04:52:50;99036.00;;;16.10
20092;BMP180;10205;49.678;6.560;2023-03-23T04:55:20;99025.00;;;16.10
20092;BMP180;10205;49.678;6.560;2023-03-23T04:57:50;99020.00;;;16.10
20092;BMP180;10205;49.678;6.560;2023-03-23T05:00:19;99017.00;;;16.10
20092;BMP180;10205;49.678;6.560;2023-03-23T05:02:47;99022.00;;;16.10
20092;BMP180;10205;49.678;6.560;2023-03-23T05:05:18;99025.00;;;16.10
20092;BMP180;10205;49.678;6.560;2023-03-23T05:07:47;99010.00;;;16.10
20092;BMP180;10205;49.678;6.560;2023-03-23T05:10:16;99018.00;;;16.00
20092;BMP180;10205;49.678;6.560;2023-03-23T05:12:44;99031.00;;;16.00
20092;BMP180;10205;49.678;6.560;2023-03-23T05:15:15;99022.00;;;16.00
20092;BMP180;10205;49.678;6.560;2023-03-23T05:17:43;99023.00;;;16.00
20092;BMP180;10205;49.678;6.560;2023-03-23T05:20:13;99024.00;;;16.00
20092;BMP180;10205;49.678;6.560;2023-03-23T05:22:41;99022.00;;;16.00
20092;BMP180;10205;49.678;6.560;2023-03-23T05:25:10;99016.00;;;16.00
20092;BMP180;10205;49.678;6.560;2023-03-23T05:27:38;99024.00;;;16.00
20092;BMP180;10205;49.678;6.560;2023-03-23T05:30:09;99009.00;;;16.00
20092;BMP180;10205;49.678;6.560;2023-03-23T05:32:38;99025.00;;;15.90
20092;BMP180;10205;49.678;6.560;2023-03-23T05:35:06;99001.00;;;15.90
20092;BMP180;10205;49.678;6.560;2023-03-23T05:37:33;99003.00;;;16.00
20092;BMP180;10205;49.678;6.560;2023-03-23T05:40:00;99019.00;;;15.90
20092;BMP180;10205;49.678;6.560;2023-03-23T05:42:31;99012.00;;;15.90
20092;BMP180;10205;49.678;6.560;2023-03-23T05:45:00;99013.00;;;15.90
20092;BMP180;10205;49.678;6.560;2023-03-23T05:47:27;99031.00;;;15.90
20092;BMP180;10205;49.678;6.560;2023-03-23T05:49:56;99021.00;;;15.90
20092;BMP180;10205;49.678;6.560;2023-03-23T05:52:24;99025.00;;;15.90
20092;BMP180;10205;49.678;6.560;2023-03-23T05:54:52;99037.00;;;15.90
20092;BMP180;10205;49.678;6.560;2023-03-23T05:57:20;99042.00;;;15.90
20092;BMP180;10205;49.678;6.560;2023-03-23T05:59:48;99041.00;;;15.90
20092;BMP180;10205;49.678;6.560;2023-03-23T06:02:15;99027.00;;;15.90
20092;BMP180;10205;49.678;6.560;2023-03-23T06:04:43;99051.00;;;15.90
20092;BMP180;10205;49.678;6.560;2023-03-23T06:07:11;99053.00;;;15.90
20092;BMP180;10205;49.678;6.560;2023-03-23T06:09:40;99068.00;;;15.90
20092;BMP180;10205;49.678;6.560;2023-03-23T06:12:09;99052.00;;;15.90
20092;BMP180;10205;49.678;6.560;2023-03-23T06:14:37;99058.00;;;15.90
20092;BMP180;10205;49.678;6.560;2023-03-23T06:17:05;99052.00;;;15.90
20092;BMP180;10205;49.678;6.560;2023-03-23T06:19:33;99049.00;;;15.90
20092;BMP180;10205;49.678;6.560;2023-03-23T06:22:00;99036.00;;;15.90
20092;BMP180;10205;49.678;6.560;2023-03-23T06:24:29;99041.00;;;15.90
20092;BMP180;10205;49.678;6.560;2023-03-23T06:26:56;99065.00;;;15.90
20092;BMP180;10205;49.678;6.560;2023-03-23T06:29:25;99053.00;;;15.90
20092;BMP180;10205;49.678;6.560;2023-03-23T06:31:56;99050.00;;;15.90
20092;BMP180;10205;49.678;6.560;2023-03-23T06:34:24;99059.00;;;15.90
20092;BMP180;10205;49.678;6.560;2023-03-23T06:36:51;99061.00;;;15.90
20092;BMP180;10205;49.678;6.560;2023-03-23T06:39:19;99080.00;;;15.90
20092;BMP180;10205;49.678;6.560;2023-03-23T06:41:49;99086.00;;;15.90
20092;BMP180;10205;49.678;6.560;2023-03-23T06:44:16;99091.00;;;15.90
20092;BMP180;10205;49.678;6.560;2023-03-23T06:46:43;99092.00;;;15.90
20092;BMP180;10205;49.678;6.560;2023-03-23T06:49:10;99095.00;;;15.90
20092;BMP180;10205;49.678;6.560;2023-03-23T06:51:37;99109.00;;;15.90
20092;BMP180;10205;49.678;6.560;2023-03-23T06:54:04;99117.00;;;15.90
20092;BMP180;10205;49.678;6.560;2023-03-23T06:56:32;99129.00;;;15.90
20092;BMP180;10205;49.678;6.560;2023-03-23T06:59:01;99125.00;;;15.90
20092;BMP180;10205;49.678;6.560;2023-03-23T07:01:29;99142.00;;;15.90
20092;BMP180;10205;49.678;6.560;2023-03-23T07:03:56;99129.00;;;15.90
20092;BMP180;10205;49.678;6.560;2023-03-23T07:06:24;99141.00;;;15.90
20092;BMP180;10205;49.678;6.560;2023-03-23T07:08:52;99128.00;;;15.90
20092;BMP180;10205;49.678;6.560;2023-03-23T07:11:19;99130.00;;;15.90
20092;BMP180;10205;49.678;6.560;2023-03-23T07:13:46;99150.00;;;15.90
20092;BMP180;10205;49.678;6.560;2023-03-23T07:16:14;99134.00;;;15.90
20092;BMP180;10205;49.678;6.560;2023-03-23T07:18:42;99137.00;;;16.00
20092;BMP180;10205;49.678;6.560;2023-03-23T07:21:09;99134.00;;;15.90
20092;BMP180;10205;49.678;6.560;2023-03-23T07:23:37;99146.00;;;15.90
20092;BMP180;10205;49.678;6.560;2023-03-23T07:26:05;99137.00;;;16.00
20092;BMP180;10205;49.678;6.560;2023-03-23T07:28:32;99141.00;;;15.90
20092;BMP180;10205;49.678;6.560;2023-03-23T07:30:59;99148.00;;;16.00
20092;BMP180;10205;49.678;6.560;2023-03-23T07:33:28;99160.00;;;15.90
20092;BMP180;10205;49.678;6.560;2023-03-23T07:35:55;99162.00;;;16.00
20092;BMP180;10205;49.678;6.560;2023-03-23T07:38:25;99151.00;;;16.00
20092;BMP180;10205;49.678;6.560;2023-03-23T07:40:53;99147.00;;;15.90
20092;BMP180;10205;49.678;6.560;2023-03-23T07:43:20;99150.00;;;15.90
20092;BMP180;10205;49.678;6.560;2023-03-23T07:45:48;99147.00;;;15.90
20092;BMP180;10205;49.678;6.560;2023-03-23T07:48:15;99130.00;;;15.90
20092;BMP180;10205;49.678;6.560;2023-03-23T07:50:44;99131.00;;;15.90
20092;BMP180;10205;49.678;6.560;2023-03-23T07:53:12;99124.00;;;15.90
20092;BMP180;10205;49.678;6.560;2023-03-23T07:55:39;99123.00;;;15.90
20092;BMP180;10205;49.678;6.560;2023-03-23T07:58:06;99122.00;;;15.90
20092;BMP180;10205;49.678;6.560;2023-03-23T08:00:34;99122.00;;;15.90
20092;BMP180;10205;49.678;6.560;2023-03-23T08:03:05;99120.00;;;15.90
20092;BMP180;10205;49.678;6.560;2023-03-23T08:05:33;99121.00;;;16.00
20092;BMP180;10205;49.678;6.560;2023-03-23T08:08:01;99120.00;;;15.90
20092;BMP180;10205;49.678;6.560;2023-03-23T08:10:28;99134.00;;;15.90
20092;BMP180;10205;49.678;6.560;2023-03-23T08:12:57;99124.00;;;15.90
20092;BMP180;10205;49.678;6.560;2023-03-23T08:15:25;99136.00;;;15.90
20092;BMP180;10205;49.678;6.560;2023-03-23T08:17:53;99132.00;;;16.00
20092;BMP180;10205;49.678;6.560;2023-03-23T08:20:20;99142.00;;;16.00
20092;BMP180;10205;49.678;6.560;2023-03-23T08:22:53;99142.00;;;16.00
20092;BMP180;10205;49.678;6.560;2023-03-23T08:25:23;99136.00;;;16.00
20092;BMP180;10205;49.678;6.560;2023-03-23T08:27:52;99138.00;;;16.00
20092;BMP180;10205;49.678;6.560;2023-03-23T08:30:20;99154.00;;;16.00
20092;BMP180;10205;49.678;6.560;2023-03-23T08:32:48;99155.00;;;16.00
20092;BMP180;10205;49.678;6.560;2023-03-23T08:35:17;99162.00;;;16.00
20092;BMP180;10205;49.678;6.560;2023-03-23T08:37:45;99164.00;;;16.00
20092;BMP180;10205;49.678;6.560;2023-03-23T08:40:19;99160.00;;;16.00
20092;BMP180;10205;49.678;6.560;2023-03-23T08:42:51;99176.00;;;16.00
20092;BMP180;10205;49.678;6.560;2023-03-23T08:45:22;99170.00;;;16.00
20092;BMP180;10205;49.678;6.560;2023-03-23T08:47:50;99170.00;;;16.00
20092;BMP180;10205;49.678;6.560;2023-03-23T08:50:23;99167.00;;;16.00
20092;BMP180;10205;49.678;6.560;2023-03-23T08:52:52;99174.00;;;16.00
20092;BMP180;10205;49.678;6.560;2023-03-23T08:55:21;99171.00;;;16.00
20092;BMP180;10205;49.678;6.560;2023-03-23T08:57:50;99157.00;;;16.00
20092;BMP180;10205;49.678;6.560;2023-03-23T09:00:20;99168.00;;;16.10
20092;BMP180;10205;49.678;6.560;2023-03-23T09:02:52;99168.00;;;16.10
20092;BMP180;10205;49.678;6.560;2023-03-23T09:05:24;99187.00;;;16.10
20092;BMP180;10205;49.678;6.560;2023-03-23T09:07:55;99172.00;;;16.10
20092;BMP180;10205;49.678;6.560;2023-03-23T09:10:26;99177.00;;;16.10
20092;BMP180;10205;49.678;6.560;2023-03-23T09:12:55;99176.00;;;16.10
20092;BMP180;10205;49.678;6.560;2023-03-23T09:15:23;99171.00;;;16.10
20092;BMP180;10205;49.678;6.560;2023-03-23T09:17:52;99189.00;;;16.10
20092;BMP180;10205;49.678;6.560;2023-03-23T09:20:24;99175.00;;;16.10
20092;BMP180;10205;49.678;6.560;2023-03-23T09:22:54;99170.00;;;16.20
20092;BMP180;10205;49.678;6.560;2023-03-23T09:25:24;99163.00;;;16.10
20092;BMP180;10205;49.678;6.560;2023-03-23T09:27:56;99173.00;;;16.20
20092;BMP180;10205;49.678;6.560;2023-03-23T09:30:25;99179.00;;;16.20
20092;BMP180;10205;49.678;6.560;2023-03-23T09:32:53;99178.00;;;16.20
20092;BMP180;10205;49.678;6.560;2023-03-23T09:35:21;99176.00;;;16.20
20092;BMP180;10205;49.678;6.560;2023-03-23T09:37:50;99182.00;;;16.20
20092;BMP180;10205;49.678;6.560;2023-03-23T09:40:21;99197.00;;;16.20
20092;BMP180;10205;49.678;6.560;2023-03-23T09:43:22;99181.00;;;16.30
20092;BMP180;10205;49.678;6.560;2023-03-23T09:46:07;99187.00;;;16.30
20092;BMP180;10205;49.678;6.560;2023-03-23T09:48:50;99191.00;;;16.30
20092;BMP180;10205;49.678;6.560;2023-03-23T09:51:38;99195.00;;;16.30
20092;BMP180;10205;49.678;6.560;2023-03-23T09:54:17;99191.00;;;16.40
20092;BMP180;10205;49.678;6.560;2023-03-23T09:56:46;99191.00;;;16.40
20092;BMP180;10205;49.678;6.560;2023-03-23T09:59:21;99187.00;;;16.50
20092;BMP180;10205;49.678;6.560;2023-03-23T10:01:53;99188.00;;;16.50
20092;BMP180;10205;49.678;6.560;2023-03-23T10:04:37;99193.00;;;16.50
20092;BMP180;10205;49.678;6.560;2023-03-23T10:07:12;99187.00;;;16.50
20092;BMP180;10205;49.678;6.560;2023-03-23T10:09:41;99178.00;;;16.60
20092;BMP180;10205;49.678;6.560;2023-03-23T10:12:24;99181.00;;;16.60
20092;BMP180;10205;49.678;6.560;2023-03-23T10:15:10;99187.00;;;16.70
20092;BMP180;10205;49.678;6.560;2023-03-23T10:17:46;99203.00;;;16.70
20092;BMP180;10205;49.678;6.560;2023-03-23T10:20:42;99207.00;;;16.80
20092;BMP180;10205;49.678;6.560;2023-03-23T10:23:33;99209.00;;;16.80
20092;BMP180;10205;49.678;6.560;2023-03-23T10:26:10;99205.00;;;16.80
20092;BMP180;10205;49.678;6.560;2023-03-23T10:28:42;99207.00;;;16.90
20092;BMP180;10205;49.678;6.560;2023-03-23T10:31:14;99211.00;;;16.90
20092;BMP180;10205;49.678;6.560;2023-03-23T10:33:47;99209.00;;;16.90
20092;BMP180;10205;49.678;6.560;2023-03-23T10:36:19;99210.00;;;17.00
20092;BMP180;10205;49.678;6.560;2023-03-23T10:38:56;99207.00;;;17.00
20092;BMP180;10205;49.678;6.560;2023-03-23T10:41:24;99210.00;;;17.00
20092;BMP180;10205;49.678;6.560;2023-03-23T10:43:52;99212.00;;;17.10
20092;BMP180;10205;49.678;6.560;2023-03-23T10:46:35;99207.00;;;17.10
20092;BMP180;10205;49.678;6.560;2023-03-23T10:49:11;99204.00;;;17.10
20092;BMP180;10205;49.678;6.560;2023-03-23T10:51:44;99201.00;;;17.20
20092;BMP180;10205;49.678;6.560;2023-03-23T10:54:27;99211.00;;;17.20
20092;BMP180;10205;49.678;6.560;2023-03-23T10:56:54;99199.00;;;17.30
20092;BMP180;10205;49.678;6.560;2023-03-23T10:59:27;99197.00;;;17.30
20092;BMP180;10205;49.678;6.560;2023-03-23T11:02:00;99202.00;;;17.40
20092;BMP180;10205;49.678;6.560;2023-03-23T11:04:31;99193.00;;;17.40
20092;BMP180;10205;49.678;6.560;2023-03-23T11:07:02;99192.00;;;17.50
20092;BMP180;10205;49.678;6.560;2023-03-23T11:09:37;99196.00;;;17.50
20092;BMP180;10205;49.678;6.560;2023-03-23T11:12:16;99206.00;;;17.50
20092;BMP180;10205;49.678;6.560;2023-03-23T11:14:44;99190.00;;;17.60
20092;BMP180;10205;49.678;6.560;2023-03-23T11:17:23;99196.00;;;17.60
20092;BMP180;10205;49.678;6.560;2023-03-23T11:19:51;99184.00;;;17.70
20092;BMP180;10205;49.678;6.560;2023-03-23T11:22:26;99181.00;;;17.70
20092;BMP180;10205;49.678;6.560;2023-03-23T11:24:59;99173.00;;;17.80
20092;BMP180;10205;49.678;6.560;2023-03-23T11:27:28;99182.00;;;17.80
20092;BMP180;10205;49.678;6.560;2023-03-23T11:30:00;99179.00;;;17.80
20092;BMP180;10205;49.678;6.560;2023-03-23T11:32:36;99162.00;;;17.90
20092;BMP180;10205;49.678;6.560;2023-03-23T11:35:15;99154.00;;;17.90
20092;BMP180;10205;49.678;6.560;2023-03-23T11:37:47;99145.00;;;17.90
20092;BMP180;10205;49.678;6.560;2023-03-23T11:40:18;99124.00;;;18.00
20092;BMP180;10205;49.678;6.560;2023-03-23T11:42:49;99130.00;;;18.00
20092;BMP180;10205;49.678;6.560;2023-03-23T11:45:20;99145.00;;;18.00
20092;BMP180;10205;49.678;6.560;2023-03-23T11:48:03;99150.00;;;18.00
20092;BMP180;10205;49.678;6.560;2023-03-23T11:50:37;99154.00;;;18.10
20092;BMP180;10205;49.678;6.560;2023-03-23T11:53:15;99143.00;;;18.10
20092;BMP180;10205;49.678;6.560;2023-03-23T11:56:07;99147.00;;;18.10
20092;BMP180;10205;49.678;6.560;2023-03-23T11:58:36;99136.00;;;18.20
20092;BMP180;10205;49.678;6.560;2023-03-23T12:01:11;99143.00;;;18.20
20092;BMP180;10205;49.678;6.560;2023-03-23T12:04:27;99158.00;;;18.20
20092;BMP180;10205;49.678;6.560;2023-03-23T12:07:12;99165.00;;;18.20
20092;BMP180;10205;49.678;6.560;2023-03-23T12:09:49;99153.00;;;18.30
20092;BMP180;10205;49.678;6.560;2023-03-23T12:12:25;99149.00;;;18.30
20092;BMP180;10205;49.678;6.560;2023-03-23T12:15:10;99160.00;;;18.30
20092;BMP180;10205;49.678;6.560;2023-03-23T12:17:56;99169.00;;;18.30
20092;BMP180;10205;49.678;6.560;2023-03-23T12:20:39;99165.00;;;18.40
20092;BMP180;10205;49.678;6.560;2023-03-23T12:23:23;99168.00;;;18.40
20092;BMP180;10205;49.678;6.560;2023-03-23T12:26:18;99183.00;;;18.40
20092;BMP180;10205;49.678;6.560;2023-03-23T12:29:17;99170.00;;;18.40
20092;BMP180;10205;49.678;6.560;2023-03-23T12:31:59;99155.00;;;18.40
20092;BMP180;10205;49.678;6.560;2023-03-23T12:34:41;99164.00;;;18.40
20092;BMP180;10205;49.678;6.560;2023-03-23T12:37:28;99147.00;;;18.40
20092;BMP180;10205;49.678;6.560;2023-03-23T12:40:32;99174.00;;;18.40
20092;BMP180;10205;49.678;6.560;2023-03-23T12:43:13;99158.00;;;18.40
20092;BMP180;10205;49.678;6.560;2023-03-23T12:45:56;99145.00;;;18.40
20092;BMP180;10205;49.678;6.560;2023-03-23T12:48:29;99146.00;;;18.40
20092;BMP180;10205;49.678;6.560;2023-03-23T12:51:16;99151.00;;;18.40
20092;BMP180;10205;49.678;6.560;2023-03-23T12:53:53;99137.00;;;18.40
20092;BMP180;10205;49.678;6.560;2023-03-23T12:56:30;99134.00;;;18.40
20092;BMP180;10205;49.678;6.560;2023-03-23T12:59:09;99145.00;;;18.40
20092;BMP180;10205;49.678;6.560;2023-03-23T13:01:42;99151.00;;;18.40
20092;BMP180;10205;49.678;6.560;2023-03-23T13:04:15;99145.00;;;18.40
20092;BMP180;10205;49.678;6.560;2023-03-23T13:06:46;99137.00;;;18.40
20092;BMP180;10205;49.678;6.560;2023-03-23T13:09:24;99143.00;;;18.50
20092;BMP180;10205;49.678;6.560;2023-03-23T13:11:56;99129.00;;;18.50
20092;BMP180;10205;49.678;6.560;2023-03-23T13:14:39;99141.00;;;18.50
20092;BMP180;10205;49.678;6.560;2023-03-23T13:17:28;99146.00;;;18.50
20092;BMP180;10205;49.678;6.560;2023-03-23T13:20:29;99145.00;;;18.50
20092;BMP180;10205;49.678;6.560;2023-03-23T13:23:05;99141.00;;;18.60
20092;BMP180;10205;49.678;6.560;2023-03-23T13:25:52;99147.00;;;18.60
20092;BMP180;10205;49.678;6.560;2023-03-23T13:28:24;99140.00;;;18.60
20092;BMP180;10205;49.678;6.560;2023-03-23T13:31:01;99138.00;;;18.70
20092;BMP180;10205;49.678;6.560;2023-03-23T13:33:34;99132.00;;;18.70
20092;BMP180;10205;49.678;6.560;2023-03-23T13:36:08;99131.00;;;18.70
20092;BMP180;10205;49.678;6.560;2023-03-23T13:38:36;99141.00;;;18.80
20092;BMP180;10205;49.678;6.560;2023-03-23T13:41:13;99155.00;;;18.80
20092;BMP180;10205;49.678;6.560;2023-03-23T13:43:43;99146.00;;;18.80
20092;BMP180;10205;49.678;6.560;2023-03-23T13:46:27;99148.00;;;18.90
20092;BMP180;10205;49.678;6.560;2023-03-23T13:49:19;99150.00;;;18.90
20092;BMP180;10205;49.678;6.560;2023-03-23T13:51:59;99142.00;;;18.90
20092;BMP180;10205;49.678;6.560;2023-03-23T13:54:39;99131.00;;;18.90
20092;BMP180;10205;49.678;6.560;2023-03-23T13:57:37;99141.00;;;18.90
20092;BMP180;10205;49.678;6.560;2023-03-23T14:00:34;99129.00;;;18.90
20092;BMP180;10205;49.678;6.560;2023-03-23T14:03:12;99132.00;;;19.00
20092;BMP180;10205;49.678;6.560;2023-03-23T14:05:42;99123.00;;;19.00
20092;BMP180;10205;49.678;6.560;2023-03-23T14:08:21;99131.00;;;19.00
20092;BMP180;10205;49.678;6.560;2023-03-23T14:10:53;99131.00;;;19.00
20092;BMP180;10205;49.678;6.560;2023-03-23T14:13:30;99124.00;;;19.00
20092;BMP180;10205;49.678;6.560;2023-03-23T14:16:02;99132.00;;;19.00
20092;BMP180;10205;49.678;6.560;2023-03-23T14:18:37;99133.00;;;19.10
20092;BMP180;10205;49.678;6.560;2023-03-23T14:21:14;99141.00;;;19.10
20092;BMP180;10205;49.678;6.560;2023-03-23T14:23:42;99119.00;;;19.10
20092;BMP180;10205;49.678;6.560;2023-03-23T14:26:14;99121.00;;;19.10
20092;BMP180;10205;49.678;6.560;2023-03-23T14:28:45;99113.00;;;19.10
20092;BMP180;10205;49.678;6.560;2023-03-23T14:31:20;99108.00;;;19.10
20092;BMP180;10205;49.678;6.560;2023-03-23T14:33:50;99112.00;;;19.10
20092;BMP180;10205;49.678;6.560;2023-03-23T14:36:21;99108.00;;;19.20
20092;BMP180;10205;49.678;6.560;2023-03-23T14:39:00;99109.00;;;19.20
20092;BMP180;10205;49.678;6.560;2023-03-23T14:41:30;99099.00;;;19.20